EHGG/GRQ METAR and TAF weather

Enter ICAO airport designator
Station Type Date Time Source
EHGG METAR 2018/04/20 08:25 UTC NOAA

EHGG 200825Z AUTO 24005KT 200V280 9999 NCD 20/12 Q1021 NOSIG


Station Type Date Time Source
EHGG Decoded METAR 2018/04/20 08:25 UTC NOAA

Groningen Airport Eelde, Netherlands (EHGG) 53-08N 006-35E 4M
Apr 20, 2018 - 04:25 AM EDT / 2018.04.20 0825 UTC
Wind: from the WSW (240 degrees) at 6 MPH (5 KT) (direction variable):0
Visibility: greater than 7 mile(s):0
Temperature: 68 F (20 C)
Dew Point: 53 F (12 C)
Relative Humidity: 59%
Pressure (altimeter): 30.15 in. Hg (1021 hPa)
ob: EHGG 200825Z AUTO 24005KT 200V280 9999 NCD 20/12 Q1021 NOSIG
cycle: 8

Station Type Date Time Source
EHGG TAF 2018/04/20 06:27 UTC NOAA

TAF EHGG 200449Z 2006/2112 14006KT CAVOK
BECMG 2009/2012 26010KT
BECMG 2016/2019 32006KT
BECMG 2023/2102 3000 BR PROB40 2101/2106 1200
BECMG 2105/2107 CAVOK


Example: see airport list